Fullerton, Nebraska
Current Conditions -  °F | °C
As of 11:15 AM on Thursday 18 Dec 2014 (Local Time) from KBVN Reporting Station
Overcast Overcast  
Wind Chill: 19°   Ceiling: 2900
Heat Index: 26°   Visibility: 10mi
Dew Point: 22°   Wind: 6mph
Humidity: 83%   Direction: 190°S
Pressure: 30.19"   Gusts: NA
Location:  41.36°N, 97.97°W
Report Text: KBVN 181715Z AUTO 19005KT 10SM BKN029 OVC036 M03/M06 A3019 RMK AO2 T10331058
Loading
Personal Weather Stations






























Interactive Weather Map New forecast layout! Learn more

10-Day Weather Forecast

Advertisements
Track Severe Weather on mobile